Time;durP1;ratioP1;P1;durP2;ratioP2;P2;SDS_P1;SDS_P2;PMS_P1;PMS_P2;Temp;Humidity;BMP_temperature;BMP_pressure;BME280_temperature;BME280_humidity;BME280_pressure;Samples;Min_cycle;Max_cycle;Signal;HPM_P1;HPM_P2
2023/05/13 00:02:53;;;;;;;8.10;6.03;;;;;;;12.44;100.00;101052.38;6257790;28;20038;-90
2023/05/13 00:05:55;;;;;;;6.47;5.78;;;;;;;12.43;100.00;101048.13;6238776;28;20048;-91
2023/05/13 00:08:58;;;;;;;8.23;6.57;;;;;;;12.34;100.00;101050.63;6239405;28;20537;-89
2023/05/13 00:12:02;;;;;;;8.23;6.53;;;;;;;12.29;100.00;101050.97;6240859;28;20037;-90
2023/05/13 00:15:04;;;;;;;8.38;6.40;;;;;;;12.21;100.00;101045.56;6250435;28;20049;-90
2023/05/13 00:18:07;;;;;;;8.80;6.20;;;;;;;12.17;100.00;101047.56;6255411;28;20395;-90
2023/05/13 00:21:09;;;;;;;7.25;6.55;;;;;;;12.15;100.00;101043.44;6246861;28;20074;-90
2023/05/13 00:24:11;;;;;;;7.53;6.55;;;;;;;12.08;100.00;101048.28;6259593;28;20048;-90
2023/05/13 00:27:13;;;;;;;8.75;7.15;;;;;;;12.05;100.00;101044.16;6248556;28;20052;-91
2023/05/13 00:30:16;;;;;;;7.97;6.85;;;;;;;12.13;100.00;101043.56;6261315;28;20033;-90
2023/05/13 00:33:17;;;;;;;10.48;7.00;;;;;;;12.13;100.00;101046.16;6245887;28;20083;-90
2023/05/13 00:36:19;;;;;;;8.65;6.80;;;;;;;12.14;100.00;101046.97;6236999;28;20045;-90
2023/05/13 00:39:22;;;;;;;8.07;6.63;;;;;;;12.09;100.00;101043.91;6262677;28;20036;-90
2023/05/13 00:42:24;;;;;;;9.45;7.13;;;;;;;12.13;100.00;101050.53;6261192;28;20045;-90
2023/05/13 00:45:26;;;;;;;8.77;6.78;;;;;;;12.09;100.00;101038.72;6259203;28;20391;-90
2023/05/13 00:48:28;;;;;;;8.20;6.68;;;;;;;12.07;100.00;101046.63;6258737;28;20514;-90
2023/05/13 00:51:32;;;;;;;7.65;6.72;;;;;;;11.99;100.00;101057.59;6254169;28;20617;-90
2023/05/13 00:54:34;;;;;;;11.00;7.10;;;;;;;11.89;100.00;101061.00;6252132;28;20498;-90
2023/05/13 00:57:39;;;;;;;10.07;6.88;;;;;;;11.83;100.00;101067.47;6244181;28;20095;-91
2023/05/13 01:01:10;;;;;;;8.73;5.90;;;;;;;11.78;100.00;101062.63;6256879;28;20411;-90
2023/05/13 01:04:24;;;;;;;8.40;7.07;;;;;;;11.75;100.00;101062.00;6223158;28;20065;-91
2023/05/13 01:07:45;;;;;;;7.22;6.07;;;;;;;11.73;100.00;101049.19;6257878;28;20053;-90
2023/05/13 01:10:50;;;;;;;;;;;;;;;11.71;100.00;101068.38;6253935;28;20053;-90
2023/05/13 01:14:08;;;;;;;8.38;6.28;;;;;;;11.66;100.00;101053.16;6259095;28;19993;-90
2023/05/13 01:17:19;;;;;;;8.88;6.78;;;;;;;11.61;100.00;101050.09;6257410;28;20570;-91
2023/05/13 01:20:22;;;;;;;10.82;6.57;;;;;;;11.67;100.00;101064.34;6253548;28;20041;-90
2023/05/13 01:23:25;;;;;;;7.32;5.80;;;;;;;11.66;100.00;101055.75;6256342;28;20047;-91
2023/05/13 01:26:29;;;;;;;7.90;6.63;;;;;;;11.60;100.00;101054.47;6253524;28;20033;-90
2023/05/13 01:29:32;;;;;;;8.80;7.15;;;;;;;11.60;100.00;101053.63;6250516;28;20037;-90
2023/05/13 01:32:37;;;;;;;10.80;6.95;;;;;;;11.59;100.00;101051.97;6236169;28;20319;-90
2023/05/13 01:35:40;;;;;;;8.27;6.78;;;;;;;11.57;100.00;101052.06;6236632;28;20167;-90
2023/05/13 01:38:44;;;;;;;7.82;6.57;;;;;;;11.51;100.00;101060.31;6247223;28;20046;-90
2023/05/13 01:41:46;;;;;;;8.38;6.70;;;;;;;11.43;100.00;101057.47;6239648;28;20113;-90
2023/05/13 01:44:50;;;;;;;8.90;6.75;;;;;;;11.45;100.00;101055.59;6250354;28;20041;-90
2023/05/13 01:47:52;;;;;;;7.90;6.75;;;;;;;11.40;100.00;101055.94;6241827;28;20038;-90
2023/05/13 01:50:55;;;;;;;6.93;6.25;;;;;;;11.37;100.00;101058.75;6240109;28;20049;-91
2023/05/13 01:53:57;;;;;;;7.97;6.57;;;;;;;11.32;100.00;101060.84;6241700;28;20605;-90
2023/05/13 01:57:00;;;;;;;8.85;7.15;;;;;;;11.25;100.00;101058.81;6256183;28;20047;-90
2023/05/13 02:00:04;;;;;;;7.78;6.70;;;;;;;11.21;100.00;101058.22;6254481;28;20053;-90
2023/05/13 02:03:15;;;;;;;9.68;6.60;;;;;;;11.13;100.00;101071.75;6248750;28;20061;-90
2023/05/13 02:06:17;;;;;;;8.00;7.18;;;;;;;11.06;100.00;101061.94;6256298;28;20061;-90
2023/05/13 02:09:20;;;;;;;9.52;7.78;;;;;;;11.02;100.00;101052.72;6248526;28;20396;-90
2023/05/13 02:12:22;;;;;;;8.82;6.82;;;;;;;10.95;100.00;101058.34;6230607;28;20045;-90
2023/05/13 02:15:24;;;;;;;9.05;6.88;;;;;;;10.91;100.00;101062.09;6255515;28;20045;-90
2023/05/13 02:18:26;;;;;;;8.27;6.75;;;;;;;10.88;100.00;101057.16;6261811;28;20519;-90
2023/05/13 02:21:29;;;;;;;8.18;6.68;;;;;;;10.86;100.00;101058.19;6260532;28;20041;-90
2023/05/13 02:24:30;;;;;;;7.93;6.65;;;;;;;10.86;100.00;101053.84;6255769;28;20045;-89
2023/05/13 02:27:32;;;;;;;9.80;6.63;;;;;;;10.85;100.00;101049.56;6262772;28;20041;-90
2023/05/13 02:30:35;;;;;;;8.20;7.40;;;;;;;10.82;100.00;101049.81;6257161;28;20102;-90
2023/05/13 02:33:36;;;;;;;9.48;7.10;;;;;;;10.78;100.00;101062.16;6245423;28;20502;-90
2023/05/13 02:36:39;;;;;;;8.65;6.82;;;;;;;10.76;100.00;101056.25;6247210;28;20045;-90
2023/05/13 02:39:41;;;;;;;7.65;6.78;;;;;;;10.75;100.00;101061.53;6230686;28;20064;-89
2023/05/13 02:42:43;;;;;;;7.95;7.15;;;;;;;10.68;100.00;101065.50;6262769;28;20085;-91
2023/05/13 02:45:47;;;;;;;9.38;6.82;;;;;;;10.65;100.00;101063.94;6250129;28;20088;-91
2023/05/13 02:48:49;;;;;;;10.40;7.10;;;;;;;10.68;100.00;101058.56;6262598;28;20049;-90
2023/05/13 02:51:51;;;;;;;11.30;6.72;;;;;;;10.70;100.00;101063.63;6263489;28;20041;-91
2023/05/13 02:54:59;;;;;;;8.45;6.50;;;;;;;10.68;100.00;101068.94;6262190;28;20656;-90
2023/05/13 02:58:01;;;;;;;11.05;7.53;;;;;;;10.63;100.00;101060.63;6240863;28;20813;-90
2023/05/13 03:01:03;;;;;;;9.02;6.88;;;;;;;10.62;100.00;101068.53;6246828;28;20057;-90
2023/05/13 03:04:05;;;;;;;8.18;6.65;;;;;;;10.59;100.00;101060.97;6253147;28;20451;-90
2023/05/13 03:07:07;;;;;;;8.18;6.88;;;;;;;10.53;100.00;101069.97;6265477;28;20060;-90
2023/05/13 03:10:09;;;;;;;12.85;6.93;;;;;;;10.52;100.00;101063.16;6262943;28;20392;-90
2023/05/13 03:13:11;;;;;;;9.65;7.00;;;;;;;10.53;100.00;101065.66;6263445;28;20490;-89
2023/05/13 03:16:13;;;;;;;10.55;6.60;;;;;;;10.49;100.00;101068.56;6264939;28;20049;-90
2023/05/13 03:19:15;;;;;;;9.35;6.85;;;;;;;10.44;100.00;101066.28;6261859;28;20072;-90
2023/05/13 03:22:17;;;;;;;8.85;6.72;;;;;;;10.46;100.00;101067.03;6260887;28;20049;-90
2023/05/13 03:25:19;;;;;;;8.85;6.47;;;;;;;10.47;100.00;101073.84;6261570;28;20520;-90
2023/05/13 03:28:26;;;;;;;7.72;6.97;;;;;;;10.50;100.00;101073.63;6243519;28;20044;-90
2023/05/13 03:31:28;;;;;;;8.15;6.28;;;;;;;10.51;100.00;101075.28;6254265;28;20042;-89
2023/05/13 03:34:36;;;;;;;7.93;6.55;;;;;;;10.53;100.00;101076.00;6246193;28;20056;-90
2023/05/13 03:37:39;;;;;;;7.43;6.72;;;;;;;10.53;100.00;101078.59;6261739;28;20045;-90
2023/05/13 03:40:42;;;;;;;7.57;6.75;;;;;;;10.55;100.00;101086.25;6261496;28;20044;-90
2023/05/13 03:43:45;;;;;;;9.35;6.70;;;;;;;10.60;100.00;101085.91;6216718;28;20272;-90
2023/05/13 03:46:47;;;;;;;8.18;6.88;;;;;;;10.63;100.00;101091.69;6262002;28;20056;-90
2023/05/13 03:49:50;;;;;;;8.73;6.20;;;;;;;10.66;100.00;101090.69;6262967;28;20044;-90
2023/05/13 03:52:55;;;;;;;7.38;6.35;;;;;;;10.65;100.00;101099.38;6243496;28;20073;-90
2023/05/13 03:55:57;;;;;;;9.07;6.28;;;;;;;10.66;100.00;101093.28;6223540;28;20048;-90
2023/05/13 03:59:01;;;;;;;7.82;6.35;;;;;;;10.70;100.00;101092.94;6238772;28;20389;-89
2023/05/13 04:02:05;;;;;;;9.25;6.75;;;;;;;10.80;100.00;101094.88;6256587;28;20055;-90
2023/05/13 04:05:08;;;;;;;9.88;6.72;;;;;;;10.85;100.00;101092.78;6251451;28;20040;-90
2023/05/13 04:08:13;;;;;;;9.88;6.93;;;;;;;10.86;100.00;101094.47;6260583;28;20037;-90
2023/05/13 04:11:16;;;;;;;9.13;7.22;;;;;;;10.86;100.00;101094.47;6258304;28;20128;-90
2023/05/13 04:14:18;;;;;;;10.98;6.95;;;;;;;10.81;100.00;101094.78;6262699;28;20179;-90
2023/05/13 04:17:24;;;;;;;8.15;6.95;;;;;;;10.78;100.00;101100.16;6262476;28;20069;-90
2023/05/13 04:20:26;;;;;;;8.15;6.85;;;;;;;10.78;100.00;101094.97;6261578;28;20529;-90
2023/05/13 04:23:29;;;;;;;8.05;6.55;;;;;;;10.75;100.00;101095.19;6262694;28;20175;-90
2023/05/13 04:26:31;;;;;;;9.27;6.93;;;;;;;10.71;100.00;101096.38;6261665;28;20045;-90
2023/05/13 04:29:33;;;;;;;9.15;7.55;;;;;;;10.71;100.00;101101.53;6261425;28;20049;-90
2023/05/13 04:32:35;;;;;;;12.10;7.85;;;;;;;10.69;100.00;101106.00;6254866;28;20047;-90
2023/05/13 04:35:40;;;;;;;8.43;7.57;;;;;;;10.70;100.00;101107.63;6233444;28;20045;-90
2023/05/13 04:38:44;;;;;;;10.95;7.40;;;;;;;10.73;100.00;101116.03;6261882;28;20053;-90
2023/05/13 04:41:48;;;;;;;8.60;7.57;;;;;;;10.76;100.00;101105.47;6221802;28;20046;-90
2023/05/13 04:44:50;;;;;;;9.38;7.80;;;;;;;10.87;100.00;101102.09;6253994;28;20044;-90
2023/05/13 04:47:52;;;;;;;9.70;7.70;;;;;;;11.09;100.00;101108.34;6253048;28;20415;-90
2023/05/13 04:50:57;;;;;;;9.55;7.50;;;;;;;11.31;100.00;101105.84;6253377;28;20376;-90
2023/05/13 04:53:59;;;;;;;8.68;7.55;;;;;;;11.54;100.00;101111.13;6244129;28;20033;-90
2023/05/13 04:57:02;;;;;;;8.25;6.82;;;;;;;11.63;100.00;101121.66;6260515;28;20053;-90
2023/05/13 05:00:07;;;;;;;8.48;7.65;;;;;;;11.65;100.00;101118.91;6262217;28;20078;-90
2023/05/13 05:03:11;;;;;;;9.80;7.28;;;;;;;11.63;100.00;101124.25;6219526;28;20059;-92
2023/05/13 05:06:14;;;;;;;12.27;7.55;;;;;;;11.57;100.00;101122.09;6261519;28;20037;-92
2023/05/13 05:09:17;;;;;;;9.65;7.60;;;;;;;11.48;100.00;101116.75;6248156;28;20428;-90
2023/05/13 05:12:22;;;;;;;9.23;7.00;;;;;;;11.45;100.00;101114.38;6256612;28;20068;-90
2023/05/13 05:15:24;;;;;;;7.97;7.05;;;;;;;11.41;100.00;101117.22;6239715;28;20515;-90
2023/05/13 05:18:30;;;;;;;7.47;6.68;;;;;;;11.42;100.00;101124.03;6262026;28;20049;-90
2023/05/13 05:21:32;;;;;;;7.82;6.47;;;;;;;11.46;100.00;101126.44;6251429;28;20514;-90
2023/05/13 05:24:35;;;;;;;8.55;7.20;;;;;;;11.48;100.00;101122.78;6241653;28;20041;-90
2023/05/13 05:27:37;;;;;;;8.10;7.30;;;;;;;11.52;100.00;101126.78;6245230;28;20143;-90
2023/05/13 05:30:40;;;;;;;8.80;6.53;;;;;;;11.58;100.00;101128.13;6248738;28;20462;-90
2023/05/13 05:33:50;;;;;;;8.68;7.35;;;;;;;11.64;100.00;101133.66;6251942;28;20086;-90
2023/05/13 05:36:53;;;;;;;9.88;7.38;;;;;;;11.68;100.00;101131.69;6244230;28;20475;-90
2023/05/13 05:39:56;;;;;;;8.80;6.75;;;;;;;11.72;100.00;101129.69;6241680;28;20037;-90
2023/05/13 05:42:58;;;;;;;8.73;7.22;;;;;;;11.73;100.00;101129.56;6248099;28;20041;-90
2023/05/13 05:46:00;;;;;;;8.80;7.43;;;;;;;11.79;100.00;101134.28;6248356;28;20507;-90
2023/05/13 05:49:02;;;;;;;7.60;6.90;;;;;;;11.83;100.00;101146.09;6248072;28;20522;-90
2023/05/13 05:52:09;;;;;;;9.82;7.18;;;;;;;11.87;100.00;101144.13;6246217;28;20064;-90
2023/05/13 05:55:12;;;;;;;8.35;7.05;;;;;;;11.90;100.00;101138.72;6242378;28;20414;-90
2023/05/13 05:58:15;;;;;;;8.43;7.07;;;;;;;11.96;100.00;101140.03;6249234;28;20048;-90
2023/05/13 06:01:17;;;;;;;9.43;7.35;;;;;;;11.92;100.00;101146.38;6262019;28;20527;-90
2023/05/13 06:04:23;;;;;;;9.43;7.65;;;;;;;11.97;100.00;101145.09;6229454;28;20424;-90
2023/05/13 06:07:26;;;;;;;8.90;7.28;;;;;;;12.01;100.00;101140.50;6242439;28;20794;-90
2023/05/13 06:10:30;;;;;;;8.05;7.25;;;;;;;12.02;100.00;101140.41;6252909;28;20415;-90
2023/05/13 06:13:32;;;;;;;8.90;7.45;;;;;;;12.14;100.00;101135.22;6249854;28;20052;-90
2023/05/13 06:16:34;;;;;;;7.88;7.07;;;;;;;12.16;100.00;101136.75;6247247;28;20046;-90
2023/05/13 06:19:37;;;;;;;8.68;6.53;;;;;;;12.21;100.00;101133.81;6248449;28;20507;-90
2023/05/13 06:22:40;;;;;;;9.52;7.03;;;;;;;12.28;100.00;101140.19;6246796;28;20045;-90
2023/05/13 06:25:42;;;;;;;10.90;7.13;;;;;;;12.33;100.00;101138.06;6260954;28;20053;-90
2023/05/13 06:28:44;;;;;;;7.65;6.05;;;;;;;12.39;100.00;101135.00;6247825;28;20051;-90
2023/05/13 06:31:46;;;;;;;7.47;5.72;;;;;;;12.47;100.00;101139.59;6255891;28;20053;-90
2023/05/13 06:34:51;;;;;;;6.95;6.03;;;;;;;12.50;100.00;101141.97;6256287;28;20029;-90
2023/05/13 06:37:56;;;;;;;9.65;5.60;;;;;;;12.59;100.00;101138.66;6236608;28;20037;-90
2023/05/13 06:40:59;;;;;;;11.52;6.50;;;;;;;12.65;100.00;101147.75;6251056;28;20079;-90
2023/05/13 06:44:06;;;;;;;8.32;6.15;;;;;;;12.74;100.00;101141.00;6250796;28;20045;-90
2023/05/13 06:47:14;;;;;;;7.65;5.68;;;;;;;12.81;100.00;101139.56;6255103;28;20057;-90
2023/05/13 06:50:22;;;;;;;9.25;5.68;;;;;;;12.93;100.00;101146.41;6250253;28;20056;-90
2023/05/13 06:53:24;;;;;;;6.50;5.75;;;;;;;12.99;100.00;101150.28;6248769;28;20087;-90
2023/05/13 06:56:28;;;;;;;8.52;5.70;;;;;;;13.03;100.00;101149.09;6251944;28;20354;-90
2023/05/13 06:59:30;;;;;;;7.07;5.13;;;;;;;13.07;100.00;101145.34;6254370;28;20565;-90
2023/05/13 07:02:32;;;;;;;6.05;5.45;;;;;;;13.20;100.00;101142.56;6251519;28;20818;-90
2023/05/13 07:05:35;;;;;;;9.30;5.47;;;;;;;13.20;100.00;101146.00;6254227;28;20430;-90
2023/05/13 07:08:37;;;;;;;8.27;5.35;;;;;;;13.27;100.00;101141.16;6251537;28;20721;-90
2023/05/13 07:11:40;;;;;;;8.07;5.40;;;;;;;13.32;100.00;101139.84;6255175;28;20128;-90
2023/05/13 07:14:44;;;;;;;8.02;5.80;;;;;;;13.42;100.00;101141.69;6264591;28;20052;-90
2023/05/13 07:17:46;;;;;;;5.80;5.20;;;;;;;13.48;100.00;101139.41;6252785;28;20053;-90
2023/05/13 07:20:48;;;;;;;9.52;5.85;;;;;;;13.55;100.00;101143.16;6253926;28;20041;-90
2023/05/13 07:23:50;;;;;;;5.88;5.03;;;;;;;13.64;100.00;101135.53;6253583;28;20037;-91
2023/05/13 07:26:52;;;;;;;12.43;5.88;;;;;;;13.69;100.00;101131.63;6275579;28;20064;-90
2023/05/13 07:29:54;;;;;;;7.90;5.50;;;;;;;13.80;100.00;101128.13;6254636;28;20132;-90
2023/05/13 07:32:56;;;;;;;10.02;5.45;;;;;;;13.86;100.00;101132.81;6257537;28;20047;-90
2023/05/13 07:35:59;;;;;;;6.70;5.38;;;;;;;13.93;100.00;101126.16;6263020;28;20487;-90
2023/05/13 07:39:02;;;;;;;5.63;4.85;;;;;;;14.04;100.00;101137.47;6245011;28;20128;-90
2023/05/13 07:42:05;;;;;;;8.38;5.40;;;;;;;14.13;100.00;101131.47;6254118;28;20505;-90
2023/05/13 07:45:08;;;;;;;7.50;5.43;;;;;;;14.20;100.00;101137.81;6264254;28;20126;-90
2023/05/13 07:48:10;;;;;;;8.32;5.00;;;;;;;14.29;100.00;101137.03;6252992;28;20407;-90
2023/05/13 07:51:12;;;;;;;8.55;5.50;;;;;;;14.37;100.00;101133.78;6240467;28;20531;-90
2023/05/13 07:54:17;;;;;;;7.00;5.45;;;;;;;14.60;100.00;101135.25;6237991;28;20080;-90
2023/05/13 07:57:19;;;;;;;6.68;5.25;;;;;;;14.61;100.00;101133.50;6241967;28;20038;-89
2023/05/13 08:00:21;;;;;;;7.90;5.93;;;;;;;14.63;100.00;101126.34;6245765;28;20045;-89
2023/05/13 08:03:23;;;;;;;7.88;5.65;;;;;;;14.68;100.00;101128.56;6253448;28;20052;-92
2023/05/13 08:06:25;;;;;;;7.07;5.88;;;;;;;14.78;100.00;101124.19;6250320;28;20037;-89
2023/05/13 08:09:27;;;;;;;7.78;5.28;;;;;;;14.89;100.00;101128.50;6250403;28;20036;-90
2023/05/13 08:12:30;;;;;;;9.75;5.78;;;;;;;14.96;100.00;101129.59;6249577;28;20120;-89
2023/05/13 08:15:32;;;;;;;8.63;5.50;;;;;;;15.08;100.00;101129.34;6238981;28;20052;-89
2023/05/13 08:18:34;;;;;;;7.10;5.75;;;;;;;15.17;100.00;101119.88;6253073;28;20033;-89
2023/05/13 08:21:36;;;;;;;10.23;4.88;;;;;;;15.28;100.00;101126.75;6255039;28;20192;-90
2023/05/13 08:24:42;;;;;;;7.80;5.53;;;;;;;15.41;100.00;101123.88;6252839;28;20055;-90
2023/05/13 08:27:44;;;;;;;8.48;5.65;;;;;;;15.53;100.00;101120.16;6243983;28;20040;-90
2023/05/13 08:30:49;;;;;;;11.38;5.57;;;;;;;15.68;100.00;101120.53;6258186;28;20643;-90
2023/05/13 08:33:52;;;;;;;6.28;5.68;;;;;;;15.83;100.00;101123.56;6253827;28;20434;-92
2023/05/13 08:36:54;;;;;;;5.72;5.13;;;;;;;15.90;100.00;101125.47;6241020;28;20435;-90
2023/05/13 08:40:00;;;;;;;6.18;5.57;;;;;;;16.05;100.00;101120.63;6259460;28;20459;-90
2023/05/13 08:43:03;;;;;;;6.93;5.50;;;;;;;16.20;100.00;101136.66;6246258;28;20212;-90
2023/05/13 08:46:09;;;;;;;8.45;5.45;;;;;;;16.28;100.00;101135.94;6257551;28;20479;-90
2023/05/13 08:49:12;;;;;;;7.57;5.22;;;;;;;16.33;100.00;101137.16;6242927;28;20045;-89
2023/05/13 08:52:15;;;;;;;7.35;5.65;;;;;;;16.47;100.00;101138.50;6250574;28;20044;-90
2023/05/13 08:55:18;;;;;;;7.65;5.40;;;;;;;16.61;100.00;101131.13;6219506;28;20091;-90
2023/05/13 08:58:20;;;;;;;7.28;5.57;;;;;;;16.71;100.00;101131.88;6253296;28;20526;-90
2023/05/13 09:01:23;;;;;;;7.32;6.10;;;;;;;16.78;100.00;101140.81;6260797;28;20128;-90
2023/05/13 09:04:26;;;;;;;9.15;7.20;;;;;;;16.90;100.00;101139.66;6258749;28;20700;-91
2023/05/13 09:07:35;;;;;;;8.52;5.60;;;;;;;17.09;100.00;101141.34;6252517;28;20127;-91
2023/05/13 09:10:38;;;;;;;15.40;6.47;;;;;;;17.16;100.00;101144.97;6248821;28;20396;-91
2023/05/13 09:13:42;;;;;;;11.52;6.05;;;;;;;17.23;100.00;101142.59;6256164;28;20045;-90
2023/05/13 09:16:46;;;;;;;13.52;6.47;;;;;;;17.33;100.00;101142.50;6245056;28;20127;-90
2023/05/13 09:19:49;;;;;;;8.98;6.35;;;;;;;17.34;100.00;101134.53;6239124;28;20053;-90
2023/05/13 09:22:52;;;;;;;10.63;6.40;;;;;;;17.44;100.00;101131.84;6263340;28;20347;-90
2023/05/13 09:25:55;;;;;;;7.80;6.22;;;;;;;17.51;100.00;101132.84;6239650;28;20045;-90
2023/05/13 09:29:20;;;;;;;9.38;6.57;;;;;;;17.65;100.00;101131.50;6245463;28;20418;-90
2023/05/13 09:32:23;;;;;;;7.28;6.07;;;;;;;17.75;100.00;101134.84;6253426;28;20052;-91
2023/05/13 09:35:25;;;;;;;9.02;6.45;;;;;;;17.85;100.00;101127.72;6248025;28;20053;-91
2023/05/13 09:38:31;;;;;;;9.80;6.63;;;;;;;17.98;100.00;101126.50;6238695;28;20511;-90
2023/05/13 09:41:36;;;;;;;11.52;5.97;;;;;;;17.99;100.00;101121.13;6239844;28;20046;-91
2023/05/13 09:44:37;;;;;;;7.60;5.75;;;;;;;18.11;100.00;101121.69;6248238;28;20045;-90
2023/05/13 09:47:40;;;;;;;5.90;5.10;;;;;;;18.22;100.00;101118.78;6251963;28;20041;-92
2023/05/13 09:50:48;;;;;;;9.48;5.30;;;;;;;18.26;100.00;101114.88;6237030;28;20124;-91
2023/05/13 09:53:50;;;;;;;9.43;5.20;;;;;;;18.42;100.00;101114.09;6236083;28;20034;-92
2023/05/13 09:56:57;;;;;;;7.32;5.40;;;;;;;18.56;100.00;101120.56;6252573;28;20134;-91
2023/05/13 10:00:04;;;;;;;9.75;5.10;;;;;;;18.70;100.00;101116.47;6246693;28;20399;-92
2023/05/13 10:03:11;;;;;;;7.93;5.43;;;;;;;18.78;100.00;101123.59;6248004;28;20053;-92
2023/05/13 10:06:17;;;;;;;7.72;4.93;;;;;;;18.93;100.00;101124.59;6255916;28;20079;-92
2023/05/13 10:09:21;;;;;;;5.15;4.50;;;;;;;19.02;100.00;101130.69;6246069;28;20451;-93
2023/05/13 10:12:26;;;;;;;6.70;4.95;;;;;;;19.06;100.00;101127.59;6247965;28;20496;-92
2023/05/13 10:15:28;;;;;;;6.38;5.00;;;;;;;19.09;100.00;101129.06;6250619;28;20033;-92
2023/05/13 10:18:30;;;;;;;5.93;5.05;;;;;;;19.18;100.00;101138.59;6248033;28;20502;-92
2023/05/13 10:21:36;;;;;;;5.57;5.00;;;;;;;19.23;100.00;101119.72;6225678;28;20041;-93
2023/05/13 10:24:40;;;;;;;6.35;5.03;;;;;;;19.32;100.00;101119.56;6241149;28;20065;-91
2023/05/13 10:27:43;;;;;;;6.53;4.85;;;;;;;19.43;100.00;101125.47;6238251;28;20049;-92
2023/05/13 10:30:48;;;;;;;7.35;4.40;;;;;;;19.56;100.00;101121.38;6250356;28;20056;-91
2023/05/13 10:33:52;;;;;;;10.93;5.00;;;;;;;19.63;100.00;101124.16;6239826;28;20499;-91
2023/05/13 10:37:42;;;;;;;6.68;4.72;;;;;;;19.71;100.00;101126.78;6250021;28;20534;-91
2023/05/13 10:41:13;;;;;;;6.82;4.70;;;;;;;19.77;100.00;101127.94;6261244;28;20041;-91
2023/05/13 10:44:18;;;;;;;5.82;4.57;;;;;;;19.82;100.00;101135.31;6251462;28;20052;-91
2023/05/13 10:47:20;;;;;;;5.60;4.97;;;;;;;19.91;100.00;101129.06;6258495;28;20041;-91
2023/05/13 10:50:24;;;;;;;7.82;5.15;;;;;;;19.99;100.00;101131.66;6252632;28;20392;-92
2023/05/13 10:53:36;;;;;;;8.70;4.97;;;;;;;20.06;100.00;101122.13;6253229;28;20064;-91
2023/05/13 10:56:38;;;;;;;6.25;5.38;;;;;;;20.15;100.00;101122.94;6259572;28;20178;-91
2023/05/13 11:00:19;;;;;;;7.63;4.93;;;;;;;20.28;100.00;101119.75;6259958;28;20446;-91
2023/05/13 11:03:28;;;;;;;7.75;4.90;;;;;;;20.36;100.00;101120.53;6250628;28;20056;-91
2023/05/13 11:06:40;;;;;;;7.38;5.25;;;;;;;20.40;100.00;101113.97;6257963;28;20354;-92
2023/05/13 11:09:51;;;;;;;6.45;5.20;;;;;;;20.58;100.00;101113.72;6261442;28;20529;-91
2023/05/13 11:13:14;;;;;;;6.25;5.38;;;;;;;20.89;100.00;101119.97;6263801;28;20045;-91
2023/05/13 11:16:17;;;;;;;6.90;4.57;;;;;;;21.04;100.00;101113.78;6263953;28;20044;-92
2023/05/13 11:19:47;;;;;;;7.30;4.25;;;;;;;21.11;100.00;101116.53;6255267;28;20072;-92
2023/05/13 11:22:50;;;;;;;6.13;4.30;;;;;;;21.20;100.00;101122.56;6251990;28;20037;-91
2023/05/13 11:26:15;;;;;;;5.30;3.78;;;;;;;21.29;100.00;101117.06;6254133;28;20044;-91
2023/05/13 11:29:31;;;;;;;6.32;4.10;;;;;;;21.41;100.00;101120.09;6246855;28;20056;-91
2023/05/13 11:33:01;;;;;;;4.47;4.05;;;;;;;21.53;100.00;101112.59;6245726;28;20049;-91
2023/05/13 11:36:04;;;;;;;8.50;4.15;;;;;;;21.68;100.00;101109.97;6255441;28;20045;-91
2023/05/13 11:39:12;;;;;;;5.88;3.60;;;;;;;21.85;100.00;101110.63;6256553;28;20045;-91
2023/05/13 11:42:15;;;;;;;6.18;3.53;;;;;;;22.01;97.44;101114.91;6263582;28;20475;-91
2023/05/13 11:45:26;;;;;;;6.47;3.78;;;;;;;22.17;91.85;101113.91;6246382;28;20079;-91
2023/05/13 11:48:28;;;;;;;5.95;3.38;;;;;;;22.38;92.33;101114.00;6250600;28;20541;-91
2023/05/13 11:51:33;;;;;;;9.35;3.75;;;;;;;22.56;93.67;101103.88;6252233;28;20112;-91
2023/05/13 11:54:48;;;;;;;5.63;3.83;;;;;;;22.82;92.60;101105.16;6250566;28;20120;-91
2023/05/13 11:57:50;;;;;;;5.80;3.53;;;;;;;23.08;84.45;101109.09;6262273;28;20128;-90
2023/05/13 12:00:53;;;;;;;5.50;3.63;;;;;;;23.35;80.56;101107.50;6255725;28;20483;-92
2023/05/13 12:04:01;;;;;;;6.78;3.78;;;;;;;23.78;83.50;101107.44;6241020;28;20130;-92
2023/05/13 12:07:04;;;;;;;6.75;3.95;;;;;;;23.95;77.99;101103.47;6248844;28;20047;-91
2023/05/13 12:10:07;;;;;;;8.43;3.67;;;;;;;24.40;82.66;101105.72;6246786;28;20091;-91
2023/05/13 12:13:09;;;;;;;4.50;3.53;;;;;;;24.87;61.34;101104.84;6261343;28;20064;-91
2023/05/13 12:16:12;;;;;;;4.32;3.65;;;;;;;25.17;66.68;101101.84;6246330;28;20055;-91
2023/05/13 12:19:14;;;;;;;5.47;3.92;;;;;;;25.44;58.91;101091.22;6252623;28;20059;-92
2023/05/13 12:22:20;;;;;;;5.40;3.72;;;;;;;25.44;62.96;101092.06;6260963;28;20052;-91
2023/05/13 12:25:38;;;;;;;4.53;3.63;;;;;;;24.65;64.03;101100.72;6253953;28;20380;-90
2023/05/13 12:28:40;;;;;;;4.60;3.35;;;;;;;24.36;66.87;101101.81;6263399;28;20048;-92
2023/05/13 12:32:02;;;;;;;5.55;3.33;;;;;;;24.60;63.34;101097.84;6259609;28;20498;-92
2023/05/13 12:35:12;;;;;;;5.18;4.00;;;;;;;25.02;68.18;101087.91;6251478;28;20297;-92
2023/05/13 12:38:16;;;;;;;6.60;3.45;;;;;;;25.47;62.87;101091.63;6258095;28;20398;-92
2023/05/13 12:41:20;;;;;;;5.22;4.07;;;;;;;25.92;61.59;101091.75;6250697;28;20048;-92
2023/05/13 12:44:22;;;;;;;3.95;3.55;;;;;;;26.35;66.42;101093.84;6254868;28;20195;-91
2023/05/13 12:47:24;;;;;;;4.85;3.53;;;;;;;25.89;58.93;101094.03;6265104;28;20040;-91
2023/05/13 12:50:26;;;;;;;6.10;3.95;;;;;;;25.03;53.39;101106.28;6250874;28;20037;-91
2023/05/13 12:53:30;;;;;;;5.70;3.42;;;;;;;24.70;60.88;101096.44;6255893;28;20108;-91
2023/05/13 12:56:32;;;;;;;5.82;3.60;;;;;;;24.81;68.73;101091.56;6246649;28;20053;-91
2023/05/13 12:59:35;;;;;;;5.88;4.10;;;;;;;24.83;71.84;101086.91;6254450;28;20428;-93
2023/05/13 13:02:39;;;;;;;8.10;3.78;;;;;;;25.20;60.39;101090.03;6247923;28;20148;-92
2023/05/13 13:05:41;;;;;;;5.25;3.33;;;;;;;25.81;62.60;101081.75;6254074;28;20048;-93
2023/05/13 13:08:43;;;;;;;4.15;3.17;;;;;;;26.32;52.92;101088.94;6246993;28;20048;-92
2023/05/13 13:11:46;;;;;;;6.72;3.53;;;;;;;26.70;50.51;101087.34;6252631;28;20490;-93
2023/05/13 13:14:48;;;;;;;8.82;3.60;;;;;;;27.08;50.46;101081.97;6256413;28;20041;-92
2023/05/13 13:17:50;;;;;;;6.65;4.03;;;;;;;27.15;47.04;101082.72;6249898;28;20037;-92
2023/05/13 13:20:52;;;;;;;7.38;3.38;;;;;;;26.75;49.39;101080.34;6241840;28;20068;-92
2023/05/13 13:23:54;;;;;;;3.88;3.47;;;;;;;26.10;47.83;101087.63;6242528;28;20052;-92
2023/05/13 13:26:56;;;;;;;7.13;4.07;;;;;;;25.42;54.12;101072.88;6243437;28;20518;-92
2023/05/13 13:29:59;;;;;;;5.85;3.53;;;;;;;24.92;57.43;101085.69;6252037;28;20037;-92
2023/05/13 13:33:03;;;;;;;5.22;3.00;;;;;;;24.58;54.96;101086.66;6258801;28;20361;-92
2023/05/13 13:36:06;;;;;;;6.97;3.50;;;;;;;24.13;58.49;101073.84;6249302;28;20041;-91
2023/05/13 13:39:08;;;;;;;6.35;3.10;;;;;;;23.68;59.53;101076.03;6237885;28;20045;-91
2023/05/13 13:42:11;;;;;;;5.25;3.47;;;;;;;23.70;71.36;101074.00;6253217;28;20038;-92
2023/05/13 13:45:14;;;;;;;3.70;3.40;;;;;;;24.32;64.23;101066.16;6247792;28;20186;-93
2023/05/13 13:48:16;;;;;;;4.15;3.20;;;;;;;24.95;54.37;101064.09;6258234;28;20041;-93
2023/05/13 13:51:18;;;;;;;6.07;2.80;;;;;;;25.44;48.17;101056.75;6252311;28;20483;-93
2023/05/13 13:54:20;;;;;;;4.78;3.00;;;;;;;25.92;50.51;101053.81;6253700;28;20132;-93
2023/05/13 13:57:22;;;;;;;3.67;3.05;;;;;;;26.57;46.05;101054.53;6252906;28;20044;-93
2023/05/13 14:00:24;;;;;;;5.47;3.30;;;;;;;27.04;45.87;101044.38;6259126;28;20581;-94
2023/05/13 14:03:28;;;;;;;3.80;3.25;;;;;;;27.22;47.65;101046.28;6247790;28;20129;-94
2023/05/13 14:06:31;;;;;;;4.63;3.28;;;;;;;27.25;42.27;101039.72;6250139;28;20533;-94
2023/05/13 14:09:33;;;;;;;4.78;2.65;;;;;;;27.12;42.16;101042.47;6226566;28;20041;-94
2023/05/13 14:12:37;;;;;;;8.48;2.60;;;;;;;27.20;40.70;101042.22;6264287;28;20049;-94